sensor_id;sensor_type;location;lat;lon;timestamp;temperature;humidity
11569;DHT22;5840;46.894;15.542;2023-03-31T00:02:11;10.90;99.90
11569;DHT22;5840;46.894;15.542;2023-03-31T00:04:39;10.90;99.90
11569;DHT22;5840;46.894;15.542;2023-03-31T00:07:13;10.90;99.90
11569;DHT22;5840;46.894;15.542;2023-03-31T00:09:41;10.80;99.90
11569;DHT22;5840;46.894;15.542;2023-03-31T00:12:11;10.80;99.90
11569;DHT22;5840;46.894;15.542;2023-03-31T00:14:38;10.80;99.90
11569;DHT22;5840;46.894;15.542;2023-03-31T00:17:05;10.80;99.90
11569;DHT22;5840;46.894;15.542;2023-03-31T00:19:32;10.70;99.90
11569;DHT22;5840;46.894;15.542;2023-03-31T00:21:59;10.70;99.90
11569;DHT22;5840;46.894;15.542;2023-03-31T00:24:29;10.60;99.90
11569;DHT22;5840;46.894;15.542;2023-03-31T00:26:57;10.60;99.90
11569;DHT22;5840;46.894;15.542;2023-03-31T00:29:24;10.50;99.90
11569;DHT22;5840;46.894;15.542;2023-03-31T00:31:51;10.50;99.90
11569;DHT22;5840;46.894;15.542;2023-03-31T00:34:19;10.50;99.90
11569;DHT22;5840;46.894;15.542;2023-03-31T00:36:46;10.50;99.90
11569;DHT22;5840;46.894;15.542;2023-03-31T00:39:15;10.50;99.90
11569;DHT22;5840;46.894;15.542;2023-03-31T00:41:44;10.50;99.90
11569;DHT22;5840;46.894;15.542;2023-03-31T00:44:13;10.40;99.90
11569;DHT22;5840;46.894;15.542;2023-03-31T00:46:51;10.40;99.90
11569;DHT22;5840;46.894;15.542;2023-03-31T00:49:24;10.30;99.90
11569;DHT22;5840;46.894;15.542;2023-03-31T00:51:54;10.20;99.90
11569;DHT22;5840;46.894;15.542;2023-03-31T00:54:24;10.20;99.90
11569;DHT22;5840;46.894;15.542;2023-03-31T00:56:54;10.20;99.90
11569;DHT22;5840;46.894;15.542;2023-03-31T00:59:26;10.20;99.90
11569;DHT22;5840;46.894;15.542;2023-03-31T01:01:55;10.20;99.90
11569;DHT22;5840;46.894;15.542;2023-03-31T01:04:28;10.20;99.90
11569;DHT22;5840;46.894;15.542;2023-03-31T01:07:00;10.20;99.90
11569;DHT22;5840;46.894;15.542;2023-03-31T01:09:29;10.20;99.90
11569;DHT22;5840;46.894;15.542;2023-03-31T01:12:02;10.10;99.90
11569;DHT22;5840;46.894;15.542;2023-03-31T01:14:30;10.10;99.90
11569;DHT22;5840;46.894;15.542;2023-03-31T01:16:57;10.10;99.90
11569;DHT22;5840;46.894;15.542;2023-03-31T01:19:35;10.00;99.90
11569;DHT22;5840;46.894;15.542;2023-03-31T01:22:37;10.00;99.90
11569;DHT22;5840;46.894;15.542;2023-03-31T01:28:20;10.10;99.90
11569;DHT22;5840;46.894;15.542;2023-03-31T01:34:27;10.00;99.90
11569;DHT22;5840;46.894;15.542;2023-03-31T01:37:27;9.90;99.90
11569;DHT22;5840;46.894;15.542;2023-03-31T01:40:31;9.90;99.90
11569;DHT22;5840;46.894;15.542;2023-03-31T01:43:04;9.90;99.90
11569;DHT22;5840;46.894;15.542;2023-03-31T01:45:42;10.00;99.90
11569;DHT22;5840;46.894;15.542;2023-03-31T01:48:15;10.00;99.90
11569;DHT22;5840;46.894;15.542;2023-03-31T01:50:45;10.00;99.90
11569;DHT22;5840;46.894;15.542;2023-03-31T01:53:18;10.00;99.90
11569;DHT22;5840;46.894;15.542;2023-03-31T01:55:51;10.00;99.90
11569;DHT22;5840;46.894;15.542;2023-03-31T01:58:24;10.00;99.90
11569;DHT22;5840;46.894;15.542;2023-03-31T02:00:57;10.00;99.90
11569;DHT22;5840;46.894;15.542;2023-03-31T02:03:28;10.00;99.90
11569;DHT22;5840;46.894;15.542;2023-03-31T02:06:02;10.00;99.90
11569;DHT22;5840;46.894;15.542;2023-03-31T02:08:37;9.90;99.90
11569;DHT22;5840;46.894;15.542;2023-03-31T02:11:06;10.00;99.90
11569;DHT22;5840;46.894;15.542;2023-03-31T02:13:34;10.00;99.90
11569;DHT22;5840;46.894;15.542;2023-03-31T02:16:07;10.00;99.90
11569;DHT22;5840;46.894;15.542;2023-03-31T02:18:37;9.90;99.90
11569;DHT22;5840;46.894;15.542;2023-03-31T02:21:06;9.80;99.90
11569;DHT22;5840;46.894;15.542;2023-03-31T02:23:36;9.80;99.90
11569;DHT22;5840;46.894;15.542;2023-03-31T02:26:09;9.80;99.90
11569;DHT22;5840;46.894;15.542;2023-03-31T02:28:37;9.80;99.90
11569;DHT22;5840;46.894;15.542;2023-03-31T02:31:12;9.80;99.90
11569;DHT22;5840;46.894;15.542;2023-03-31T02:33:42;9.80;99.90
11569;DHT22;5840;46.894;15.542;2023-03-31T02:36:09;9.90;99.90
11569;DHT22;5840;46.894;15.542;2023-03-31T02:38:41;9.80;99.90
11569;DHT22;5840;46.894;15.542;2023-03-31T02:41:11;9.70;99.90
11569;DHT22;5840;46.894;15.542;2023-03-31T02:43:38;9.50;99.90
11569;DHT22;5840;46.894;15.542;2023-03-31T02:46:05;9.50;99.90
11569;DHT22;5840;46.894;15.542;2023-03-31T02:48:35;9.50;99.90
11569;DHT22;5840;46.894;15.542;2023-03-31T02:51:26;9.40;99.90
11569;DHT22;5840;46.894;15.542;2023-03-31T02:54:20;9.40;99.90
11569;DHT22;5840;46.894;15.542;2023-03-31T02:57:12;9.40;99.90
11569;DHT22;5840;46.894;15.542;2023-03-31T02:59:47;9.40;99.90
11569;DHT22;5840;46.894;15.542;2023-03-31T03:02:21;9.50;99.90
11569;DHT22;5840;46.894;15.542;2023-03-31T03:05:18;9.50;99.90
11569;DHT22;5840;46.894;15.542;2023-03-31T03:07:51;9.50;99.90
11569;DHT22;5840;46.894;15.542;2023-03-31T03:10:29;9.50;99.90
11569;DHT22;5840;46.894;15.542;2023-03-31T03:13:05;9.50;99.90
11569;DHT22;5840;46.894;15.542;2023-03-31T03:15:38;9.50;99.90
11569;DHT22;5840;46.894;15.542;2023-03-31T03:18:09;9.50;99.90
11569;DHT22;5840;46.894;15.542;2023-03-31T03:20:36;9.30;99.90
11569;DHT22;5840;46.894;15.542;2023-03-31T03:23:03;9.30;99.90
11569;DHT22;5840;46.894;15.542;2023-03-31T03:25:30;9.30;99.90
11569;DHT22;5840;46.894;15.542;2023-03-31T03:28:00;9.20;99.90
11569;DHT22;5840;46.894;15.542;2023-03-31T03:30:27;9.20;99.90
11569;DHT22;5840;46.894;15.542;2023-03-31T03:32:54;9.20;99.90
11569;DHT22;5840;46.894;15.542;2023-03-31T03:35:23;9.10;99.90
11569;DHT22;5840;46.894;15.542;2023-03-31T03:37:50;9.10;99.90
11569;DHT22;5840;46.894;15.542;2023-03-31T03:40:17;9.10;99.90
11569;DHT22;5840;46.894;15.542;2023-03-31T03:42:44;9.10;99.90
11569;DHT22;5840;46.894;15.542;2023-03-31T03:45:12;9.10;99.90
11569;DHT22;5840;46.894;15.542;2023-03-31T03:47:39;9.10;99.90
11569;DHT22;5840;46.894;15.542;2023-03-31T03:50:07;9.10;99.90
11569;DHT22;5840;46.894;15.542;2023-03-31T03:52:34;9.10;99.90
11569;DHT22;5840;46.894;15.542;2023-03-31T03:55:01;9.00;99.90
11569;DHT22;5840;46.894;15.542;2023-03-31T03:57:28;9.00;99.90
11569;DHT22;5840;46.894;15.542;2023-03-31T03:59:55;9.00;99.90
11569;DHT22;5840;46.894;15.542;2023-03-31T04:02:24;9.00;99.90
11569;DHT22;5840;46.894;15.542;2023-03-31T04:04:53;9.00;99.90
11569;DHT22;5840;46.894;15.542;2023-03-31T04:07:20;8.90;99.90
11569;DHT22;5840;46.894;15.542;2023-03-31T04:09:46;8.90;99.90
11569;DHT22;5840;46.894;15.542;2023-03-31T04:12:13;8.90;99.90
11569;DHT22;5840;46.894;15.542;2023-03-31T04:14:40;8.80;99.90
11569;DHT22;5840;46.894;15.542;2023-03-31T04:17:07;8.80;99.90
11569;DHT22;5840;46.894;15.542;2023-03-31T04:19:36;8.70;99.90
11569;DHT22;5840;46.894;15.542;2023-03-31T04:22:03;8.70;99.90
11569;DHT22;5840;46.894;15.542;2023-03-31T04:24:30;8.70;99.90
11569;DHT22;5840;46.894;15.542;2023-03-31T04:26:57;8.60;99.90
11569;DHT22;5840;46.894;15.542;2023-03-31T04:29:25;8.50;99.90
11569;DHT22;5840;46.894;15.542;2023-03-31T04:31:53;8.40;99.90
11569;DHT22;5840;46.894;15.542;2023-03-31T04:34:24;8.30;99.90
11569;DHT22;5840;46.894;15.542;2023-03-31T04:37:01;8.20;99.90
11569;DHT22;5840;46.894;15.542;2023-03-31T04:39:29;8.10;99.90
11569;DHT22;5840;46.894;15.542;2023-03-31T04:41:57;8.00;99.90
11569;DHT22;5840;46.894;15.542;2023-03-31T04:44:24;8.00;99.90
11569;DHT22;5840;46.894;15.542;2023-03-31T04:46:51;7.90;99.90
11569;DHT22;5840;46.894;15.542;2023-03-31T04:49:19;8.00;99.90
11569;DHT22;5840;46.894;15.542;2023-03-31T04:51:46;8.00;99.90
11569;DHT22;5840;46.894;15.542;2023-03-31T04:54:14;7.90;99.90
11569;DHT22;5840;46.894;15.542;2023-03-31T04:56:41;7.80;99.90
11569;DHT22;5840;46.894;15.542;2023-03-31T04:59:08;7.80;99.90
11569;DHT22;5840;46.894;15.542;2023-03-31T05:01:35;7.80;99.90
11569;DHT22;5840;46.894;15.542;2023-03-31T05:04:03;7.80;99.90
11569;DHT22;5840;46.894;15.542;2023-03-31T05:06:30;7.80;99.90
11569;DHT22;5840;46.894;15.542;2023-03-31T05:08:57;7.70;99.90
11569;DHT22;5840;46.894;15.542;2023-03-31T05:11:25;7.80;99.90
11569;DHT22;5840;46.894;15.542;2023-03-31T05:13:53;7.70;99.90
11569;DHT22;5840;46.894;15.542;2023-03-31T05:16:21;7.80;99.90
11569;DHT22;5840;46.894;15.542;2023-03-31T05:18:47;7.80;99.90
11569;DHT22;5840;46.894;15.542;2023-03-31T05:21:16;7.80;99.90
11569;DHT22;5840;46.894;15.542;2023-03-31T05:23:44;7.90;99.90
11569;DHT22;5840;46.894;15.542;2023-03-31T05:26:11;7.80;99.90
11569;DHT22;5840;46.894;15.542;2023-03-31T05:28:40;7.80;99.90
11569;DHT22;5840;46.894;15.542;2023-03-31T05:31:08;7.80;99.90
11569;DHT22;5840;46.894;15.542;2023-03-31T05:33:36;7.80;99.90
11569;DHT22;5840;46.894;15.542;2023-03-31T05:36:07;7.90;99.90
11569;DHT22;5840;46.894;15.542;2023-03-31T05:38:34;7.90;99.90
11569;DHT22;5840;46.894;15.542;2023-03-31T05:41:01;8.00;99.90
11569;DHT22;5840;46.894;15.542;2023-03-31T05:43:28;8.00;99.90
11569;DHT22;5840;46.894;15.542;2023-03-31T05:45:56;8.10;99.90
11569;DHT22;5840;46.894;15.542;2023-03-31T05:48:23;8.10;99.90
11569;DHT22;5840;46.894;15.542;2023-03-31T05:50:50;8.10;99.90
11569;DHT22;5840;46.894;15.542;2023-03-31T05:53:17;8.10;99.90
11569;DHT22;5840;46.894;15.542;2023-03-31T05:55:44;8.00;99.90
11569;DHT22;5840;46.894;15.542;2023-03-31T05:58:11;8.10;99.90
11569;DHT22;5840;46.894;15.542;2023-03-31T06:00:38;8.20;99.90
11569;DHT22;5840;46.894;15.542;2023-03-31T06:03:06;8.30;99.90
11569;DHT22;5840;46.894;15.542;2023-03-31T06:05:33;8.40;99.90
11569;DHT22;5840;46.894;15.542;2023-03-31T06:08:01;8.40;99.90
11569;DHT22;5840;46.894;15.542;2023-03-31T06:10:28;8.50;99.90
11569;DHT22;5840;46.894;15.542;2023-03-31T06:12:55;8.50;99.90
11569;DHT22;5840;46.894;15.542;2023-03-31T06:15:22;8.40;99.90
11569;DHT22;5840;46.894;15.542;2023-03-31T06:17:49;8.40;99.90
11569;DHT22;5840;46.894;15.542;2023-03-31T06:20:17;8.40;99.90
11569;DHT22;5840;46.894;15.542;2023-03-31T06:22:44;8.50;99.90
11569;DHT22;5840;46.894;15.542;2023-03-31T06:25:11;8.50;99.90
11569;DHT22;5840;46.894;15.542;2023-03-31T06:27:38;8.60;99.90
11569;DHT22;5840;46.894;15.542;2023-03-31T06:30:06;8.60;99.90
11569;DHT22;5840;46.894;15.542;2023-03-31T06:32:33;8.70;99.90
11569;DHT22;5840;46.894;15.542;2023-03-31T06:35:00;8.80;99.90
11569;DHT22;5840;46.894;15.542;2023-03-31T06:37:28;8.90;99.90
11569;DHT22;5840;46.894;15.542;2023-03-31T06:39:55;9.00;99.90
11569;DHT22;5840;46.894;15.542;2023-03-31T06:42:22;9.20;99.90
11569;DHT22;5840;46.894;15.542;2023-03-31T06:44:49;9.30;99.90
11569;DHT22;5840;46.894;15.542;2023-03-31T06:47:16;9.50;99.90
11569;DHT22;5840;46.894;15.542;2023-03-31T06:49:43;9.50;99.90
11569;DHT22;5840;46.894;15.542;2023-03-31T06:52:10;9.60;99.90
11569;DHT22;5840;46.894;15.542;2023-03-31T06:54:39;9.70;99.90
11569;DHT22;5840;46.894;15.542;2023-03-31T06:57:06;9.80;99.90
11569;DHT22;5840;46.894;15.542;2023-03-31T06:59:33;9.90;99.90
11569;DHT22;5840;46.894;15.542;2023-03-31T07:02:00;10.00;99.90
11569;DHT22;5840;46.894;15.542;2023-03-31T07:04:27;10.10;99.90
11569;DHT22;5840;46.894;15.542;2023-03-31T07:06:54;10.20;99.90
11569;DHT22;5840;46.894;15.542;2023-03-31T07:09:21;10.30;99.90
11569;DHT22;5840;46.894;15.542;2023-03-31T07:11:50;10.40;99.90
11569;DHT22;5840;46.894;15.542;2023-03-31T07:14:17;10.50;99.90
11569;DHT22;5840;46.894;15.542;2023-03-31T07:16:44;10.60;99.90
11569;DHT22;5840;46.894;15.542;2023-03-31T07:19:11;10.60;99.90
11569;DHT22;5840;46.894;15.542;2023-03-31T07:21:38;10.80;99.90
11569;DHT22;5840;46.894;15.542;2023-03-31T07:24:05;10.90;99.90
11569;DHT22;5840;46.894;15.542;2023-03-31T07:26:32;11.10;99.90
11569;DHT22;5840;46.894;15.542;2023-03-31T07:29:00;11.30;99.90
11569;DHT22;5840;46.894;15.542;2023-03-31T07:31:28;11.50;99.90
11569;DHT22;5840;46.894;15.542;2023-03-31T07:33:55;11.80;99.90
11569;DHT22;5840;46.894;15.542;2023-03-31T07:36:22;11.90;99.90
11569;DHT22;5840;46.894;15.542;2023-03-31T07:38:49;11.90;99.90
11569;DHT22;5840;46.894;15.542;2023-03-31T07:41:17;12.10;99.90
11569;DHT22;5840;46.894;15.542;2023-03-31T07:43:45;12.30;99.90
11569;DHT22;5840;46.894;15.542;2023-03-31T07:46:18;12.60;99.90
11569;DHT22;5840;46.894;15.542;2023-03-31T07:48:46;13.00;99.90
11569;DHT22;5840;46.894;15.542;2023-03-31T07:51:14;13.50;99.90
11569;DHT22;5840;46.894;15.542;2023-03-31T07:53:42;13.80;99.90
11569;DHT22;5840;46.894;15.542;2023-03-31T07:56:09;14.20;99.90
11569;DHT22;5840;46.894;15.542;2023-03-31T07:58:36;14.50;99.90
11569;DHT22;5840;46.894;15.542;2023-03-31T08:01:03;14.90;99.90
11569;DHT22;5840;46.894;15.542;2023-03-31T08:03:32;15.30;99.90
11569;DHT22;5840;46.894;15.542;2023-03-31T08:05:59;15.50;99.90
11569;DHT22;5840;46.894;15.542;2023-03-31T08:08:26;15.70;99.90
11569;DHT22;5840;46.894;15.542;2023-03-31T08:10:53;16.00;99.90
11569;DHT22;5840;46.894;15.542;2023-03-31T08:13:20;16.30;99.90
11569;DHT22;5840;46.894;15.542;2023-03-31T08:15:47;16.60;99.90
11569;DHT22;5840;46.894;15.542;2023-03-31T08:18:13;16.70;99.90
11569;DHT22;5840;46.894;15.542;2023-03-31T08:20:42;16.70;99.90
11569;DHT22;5840;46.894;15.542;2023-03-31T08:23:09;16.60;99.90
11569;DHT22;5840;46.894;15.542;2023-03-31T08:25:37;16.60;99.90
11569;DHT22;5840;46.894;15.542;2023-03-31T08:28:04;16.40;99.90
11569;DHT22;5840;46.894;15.542;2023-03-31T08:30:31;16.20;99.90
11569;DHT22;5840;46.894;15.542;2023-03-31T08:32:59;16.00;99.90
11569;DHT22;5840;46.894;15.542;2023-03-31T08:35:26;15.90;99.90
11569;DHT22;5840;46.894;15.542;2023-03-31T08:37:54;15.90;99.90
11569;DHT22;5840;46.894;15.542;2023-03-31T08:40:24;15.70;99.90
11569;DHT22;5840;46.894;15.542;2023-03-31T08:42:54;15.90;99.90
11569;DHT22;5840;46.894;15.542;2023-03-31T08:45:24;16.10;99.90
11569;DHT22;5840;46.894;15.542;2023-03-31T08:47:58;16.40;99.90
11569;DHT22;5840;46.894;15.542;2023-03-31T08:50:28;16.70;99.90
11569;DHT22;5840;46.894;15.542;2023-03-31T08:53:02;16.80;99.80
11569;DHT22;5840;46.894;15.542;2023-03-31T08:55:35;16.60;98.40
11569;DHT22;5840;46.894;15.542;2023-03-31T08:58:10;16.50;99.90
11569;DHT22;5840;46.894;15.542;2023-03-31T09:00:45;16.40;99.30
11569;DHT22;5840;46.894;15.542;2023-03-31T09:03:19;16.50;98.80
11569;DHT22;5840;46.894;15.542;2023-03-31T09:05:57;16.60;98.50
11569;DHT22;5840;46.894;15.542;2023-03-31T09:08:32;16.70;99.90
11569;DHT22;5840;46.894;15.542;2023-03-31T09:11:07;16.60;99.50
11569;DHT22;5840;46.894;15.542;2023-03-31T09:16:40;16.10;98.20
11569;DHT22;5840;46.894;15.542;2023-03-31T09:19:14;16.20;99.40
11569;DHT22;5840;46.894;15.542;2023-03-31T09:21:44;16.60;99.00
11569;DHT22;5840;46.894;15.542;2023-03-31T09:24:17;16.90;98.00
11569;DHT22;5840;46.894;15.542;2023-03-31T09:26:48;17.10;97.00
11569;DHT22;5840;46.894;15.542;2023-03-31T09:29:21;17.50;97.30
11569;DHT22;5840;46.894;15.542;2023-03-31T09:31:49;17.90;96.60
11569;DHT22;5840;46.894;15.542;2023-03-31T09:34:28;18.20;95.40
11569;DHT22;5840;46.894;15.542;2023-03-31T09:36:56;18.70;95.30
11569;DHT22;5840;46.894;15.542;2023-03-31T09:39:24;19.00;95.20
11569;DHT22;5840;46.894;15.542;2023-03-31T09:41:52;19.40;93.70
11569;DHT22;5840;46.894;15.542;2023-03-31T09:44:35;19.70;93.50
11569;DHT22;5840;46.894;15.542;2023-03-31T09:47:05;20.00;92.80
11569;DHT22;5840;46.894;15.542;2023-03-31T09:49:35;20.20;92.00
11569;DHT22;5840;46.894;15.542;2023-03-31T09:52:05;20.00;90.90
11569;DHT22;5840;46.894;15.542;2023-03-31T09:54:40;20.00;91.10
11569;DHT22;5840;46.894;15.542;2023-03-31T09:57:14;19.80;91.80
11569;DHT22;5840;46.894;15.542;2023-03-31T09:59:41;19.10;91.10
11569;DHT22;5840;46.894;15.542;2023-03-31T10:02:33;18.50;92.20
11569;DHT22;5840;46.894;15.542;2023-03-31T10:05:03;18.10;92.50
11569;DHT22;5840;46.894;15.542;2023-03-31T10:07:33;18.00;93.20
11569;DHT22;5840;46.894;15.542;2023-03-31T10:10:02;18.10;93.50
11569;DHT22;5840;46.894;15.542;2023-03-31T10:12:36;18.20;92.60
11569;DHT22;5840;46.894;15.542;2023-03-31T10:15:17;18.30;92.10
11569;DHT22;5840;46.894;15.542;2023-03-31T10:17:46;18.10;92.10
11569;DHT22;5840;46.894;15.542;2023-03-31T10:20:27;18.00;92.80
11569;DHT22;5840;46.894;15.542;2023-03-31T10:23:01;18.00;92.60
11569;DHT22;5840;46.894;15.542;2023-03-31T10:25:32;17.80;93.10
11569;DHT22;5840;46.894;15.542;2023-03-31T10:28:01;17.50;93.20
11569;DHT22;5840;46.894;15.542;2023-03-31T10:30:32;17.40;93.80
11569;DHT22;5840;46.894;15.542;2023-03-31T10:33:03;17.30;94.40
11569;DHT22;5840;46.894;15.542;2023-03-31T10:35:32;17.10;93.70
11569;DHT22;5840;46.894;15.542;2023-03-31T10:38:03;16.90;93.90
11569;DHT22;5840;46.894;15.542;2023-03-31T10:40:32;16.70;94.30
11569;DHT22;5840;46.894;15.542;2023-03-31T10:43:03;16.40;94.00
11569;DHT22;5840;46.894;15.542;2023-03-31T10:45:37;16.20;94.70
11569;DHT22;5840;46.894;15.542;2023-03-31T10:48:17;15.90;95.40
11569;DHT22;5840;46.894;15.542;2023-03-31T10:50:45;15.70;95.10
11569;DHT22;5840;46.894;15.542;2023-03-31T10:53:13;15.50;95.30
11569;DHT22;5840;46.894;15.542;2023-03-31T10:55:53;15.30;95.80
11569;DHT22;5840;46.894;15.542;2023-03-31T10:58:33;15.20;96.20
11569;DHT22;5840;46.894;15.542;2023-03-31T11:01:08;15.20;96.60
11569;DHT22;5840;46.894;15.542;2023-03-31T11:03:53;15.00;96.50
11569;DHT22;5840;46.894;15.542;2023-03-31T11:06:27;15.00;96.80
11569;DHT22;5840;46.894;15.542;2023-03-31T11:09:05;15.00;97.00
11569;DHT22;5840;46.894;15.542;2023-03-31T11:11:48;15.00;97.10
11569;DHT22;5840;46.894;15.542;2023-03-31T11:14:28;15.20;96.80
11569;DHT22;5840;46.894;15.542;2023-03-31T11:17:01;15.50;96.50
11569;DHT22;5840;46.894;15.542;2023-03-31T11:19:37;15.60;95.70
11569;DHT22;5840;46.894;15.542;2023-03-31T11:22:10;15.70;97.00
11569;DHT22;5840;46.894;15.542;2023-03-31T11:25:09;15.80;95.60
11569;DHT22;5840;46.894;15.542;2023-03-31T11:27:51;15.90;95.00
11569;DHT22;5840;46.894;15.542;2023-03-31T11:30:24;16.10;96.20
11569;DHT22;5840;46.894;15.542;2023-03-31T11:33:03;16.10;95.30
11569;DHT22;5840;46.894;15.542;2023-03-31T11:35:47;16.20;95.40
11569;DHT22;5840;46.894;15.542;2023-03-31T11:38:43;16.30;95.40
11569;DHT22;5840;46.894;15.542;2023-03-31T11:41:15;16.60;95.30
11569;DHT22;5840;46.894;15.542;2023-03-31T11:43:47;16.90;94.00
11569;DHT22;5840;46.894;15.542;2023-03-31T11:46:18;17.30;94.90
11569;DHT22;5840;46.894;15.542;2023-03-31T11:48:48;17.70;94.60
11569;DHT22;5840;46.894;15.542;2023-03-31T11:51:20;17.80;93.40
11569;DHT22;5840;46.894;15.542;2023-03-31T11:53:51;17.80;92.50
11569;DHT22;5840;46.894;15.542;2023-03-31T11:56:19;17.80;92.90
11569;DHT22;5840;46.894;15.542;2023-03-31T11:58:51;18.00;92.50
11569;DHT22;5840;46.894;15.542;2023-03-31T12:01:24;18.30;93.30
11569;DHT22;5840;46.894;15.542;2023-03-31T12:03:55;18.50;91.70
11569;DHT22;5840;46.894;15.542;2023-03-31T12:06:28;18.40;92.10
11569;DHT22;5840;46.894;15.542;2023-03-31T12:09:04;18.60;93.50
11569;DHT22;5840;46.894;15.542;2023-03-31T12:11:37;19.10;91.70
11569;DHT22;5840;46.894;15.542;2023-03-31T12:14:26;19.40;90.30
11569;DHT22;5840;46.894;15.542;2023-03-31T12:16:59;19.40;90.00
11569;DHT22;5840;46.894;15.542;2023-03-31T12:19:33;19.60;90.80
11569;DHT22;5840;46.894;15.542;2023-03-31T12:22:06;19.80;90.30
11569;DHT22;5840;46.894;15.542;2023-03-31T12:24:36;19.90;88.70
11569;DHT22;5840;46.894;15.542;2023-03-31T12:27:07;19.60;90.00
11569;DHT22;5840;46.894;15.542;2023-03-31T12:29:42;19.10;88.00
11569;DHT22;5840;46.894;15.542;2023-03-31T12:32:13;18.60;87.00
11569;DHT22;5840;46.894;15.542;2023-03-31T12:34:46;18.20;88.80
11569;DHT22;5840;46.894;15.542;2023-03-31T12:40:41;18.20;88.60
11569;DHT22;5840;46.894;15.542;2023-03-31T12:43:40;18.40;91.60
11569;DHT22;5840;46.894;15.542;2023-03-31T12:46:23;18.90;90.60
11569;DHT22;5840;46.894;15.542;2023-03-31T12:49:01;19.40;90.80
11569;DHT22;5840;46.894;15.542;2023-03-31T12:51:46;19.60;90.00
11569;DHT22;5840;46.894;15.542;2023-03-31T12:54:28;19.80;88.90
11569;DHT22;5840;46.894;15.542;2023-03-31T12:57:11;19.80;89.20
11569;DHT22;5840;46.894;15.542;2023-03-31T12:59:42;20.30;90.00
11569;DHT22;5840;46.894;15.542;2023-03-31T13:02:24;20.20;87.60
11569;DHT22;5840;46.894;15.542;2023-03-31T13:04:51;20.20;90.00
11569;DHT22;5840;46.894;15.542;2023-03-31T13:07:36;20.20;87.70
11569;DHT22;5840;46.894;15.542;2023-03-31T13:10:26;19.50;86.00
11569;DHT22;5840;46.894;15.542;2023-03-31T13:12:59;19.40;89.10
11569;DHT22;5840;46.894;15.542;2023-03-31T13:15:27;19.30;86.20
11569;DHT22;5840;46.894;15.542;2023-03-31T13:17:58;19.40;87.20
11569;DHT22;5840;46.894;15.542;2023-03-31T13:20:35;19.60;84.90
11569;DHT22;5840;46.894;15.542;2023-03-31T13:23:14;19.80;88.20
11569;DHT22;5840;46.894;15.542;2023-03-31T13:25:49;19.70;83.60
11569;DHT22;5840;46.894;15.542;2023-03-31T13:28:37;19.90;84.50
11569;DHT22;5840;46.894;15.542;2023-03-31T13:31:07;20.00;82.10
11569;DHT22;5840;46.894;15.542;2023-03-31T13:33:49;20.30;82.40
11569;DHT22;5840;46.894;15.542;2023-03-31T13:39:50;19.50;81.80
11569;DHT22;5840;46.894;15.542;2023-03-31T13:42:48;19.00;82.70
11569;DHT22;5840;46.894;15.542;2023-03-31T13:45:42;18.40;85.30
11569;DHT22;5840;46.894;15.542;2023-03-31T13:48:23;17.90;85.50
11569;DHT22;5840;46.894;15.542;2023-03-31T13:51:14;17.40;87.50
11569;DHT22;5840;46.894;15.542;2023-03-31T13:57:23;16.90;90.10
11569;DHT22;5840;46.894;15.542;2023-03-31T14:00:13;16.70;91.00
11569;DHT22;5840;46.894;15.542;2023-03-31T14:03:00;16.50;92.10
11569;DHT22;5840;46.894;15.542;2023-03-31T14:05:34;16.10;93.50
11569;DHT22;5840;46.894;15.542;2023-03-31T14:08:08;15.80;94.20
11569;DHT22;5840;46.894;15.542;2023-03-31T14:10:40;15.60;94.70
11569;DHT22;5840;46.894;15.542;2023-03-31T14:13:10;15.40;95.00
11569;DHT22;5840;46.894;15.542;2023-03-31T14:15:39;15.40;94.90
11569;DHT22;5840;46.894;15.542;2023-03-31T14:18:10;15.30;95.10
11569;DHT22;5840;46.894;15.542;2023-03-31T14:21:00;15.20;94.80
11569;DHT22;5840;46.894;15.542;2023-03-31T14:23:39;15.20;94.70
11569;DHT22;5840;46.894;15.542;2023-03-31T14:26:18;15.20;94.70
11569;DHT22;5840;46.894;15.542;2023-03-31T14:29:00;15.30;95.30
11569;DHT22;5840;46.894;15.542;2023-03-31T14:31:40;15.20;95.00
11569;DHT22;5840;46.894;15.542;2023-03-31T14:34:31;15.20;95.20
11569;DHT22;5840;46.894;15.542;2023-03-31T14:37:00;15.20;95.70
11569;DHT22;5840;46.894;15.542;2023-03-31T14:39:30;15.30;95.60
11569;DHT22;5840;46.894;15.542;2023-03-31T14:42:02;15.40;95.00
11569;DHT22;5840;46.894;15.542;2023-03-31T14:44:31;15.50;95.60
11569;DHT22;5840;46.894;15.542;2023-03-31T14:46:59;15.50;94.90
11569;DHT22;5840;46.894;15.542;2023-03-31T14:49:28;15.50;94.70
11569;DHT22;5840;46.894;15.542;2023-03-31T14:51:59;15.90;94.70
11569;DHT22;5840;46.894;15.542;2023-03-31T14:54:26;16.20;94.50
11569;DHT22;5840;46.894;15.542;2023-03-31T14:56:57;16.50;95.30
11569;DHT22;5840;46.894;15.542;2023-03-31T14:59:29;16.70;93.50
11569;DHT22;5840;46.894;15.542;2023-03-31T15:01:58;16.90;94.50
11569;DHT22;5840;46.894;15.542;2023-03-31T15:04:28;17.00;93.50
11569;DHT22;5840;46.894;15.542;2023-03-31T15:06:56;16.80;92.80
11569;DHT22;5840;46.894;15.542;2023-03-31T15:09:28;16.60;93.00
11569;DHT22;5840;46.894;15.542;2023-03-31T15:11:59;16.40;93.30
11569;DHT22;5840;46.894;15.542;2023-03-31T15:14:28;16.20;93.80
11569;DHT22;5840;46.894;15.542;2023-03-31T15:16:56;16.10;93.80
11569;DHT22;5840;46.894;15.542;2023-03-31T15:19:24;15.80;94.10
11569;DHT22;5840;46.894;15.542;2023-03-31T15:21:56;15.80;95.50
11569;DHT22;5840;46.894;15.542;2023-03-31T15:24:26;15.60;94.60
11569;DHT22;5840;46.894;15.542;2023-03-31T15:26:58;15.40;94.50
11569;DHT22;5840;46.894;15.542;2023-03-31T15:29:33;15.40;94.80
11569;DHT22;5840;46.894;15.542;2023-03-31T15:32:02;15.30;94.40
11569;DHT22;5840;46.894;15.542;2023-03-31T15:34:32;15.30;94.50
11569;DHT22;5840;46.894;15.542;2023-03-31T15:37:01;15.20;94.90
11569;DHT22;5840;46.894;15.542;2023-03-31T15:39:30;15.20;94.50
11569;DHT22;5840;46.894;15.542;2023-03-31T15:42:00;15.20;94.20
11569;DHT22;5840;46.894;15.542;2023-03-31T15:44:37;15.10;93.90
11569;DHT22;5840;46.894;15.542;2023-03-31T15:47:12;15.00;93.90
11569;DHT22;5840;46.894;15.542;2023-03-31T15:49:53;15.00;94.20
11569;DHT22;5840;46.894;15.542;2023-03-31T15:52:25;15.00;94.30
11569;DHT22;5840;46.894;15.542;2023-03-31T15:54:53;14.90;94.50
11569;DHT22;5840;46.894;15.542;2023-03-31T15:57:30;14.80;94.70
11569;DHT22;5840;46.894;15.542;2023-03-31T15:59:57;14.70;95.00
11569;DHT22;5840;46.894;15.542;2023-03-31T16:02:26;14.60;95.10
11569;DHT22;5840;46.894;15.542;2023-03-31T16:04:57;14.60;95.20
11569;DHT22;5840;46.894;15.542;2023-03-31T16:07:26;14.50;95.10
11569;DHT22;5840;46.894;15.542;2023-03-31T16:09:57;14.50;95.90
11569;DHT22;5840;46.894;15.542;2023-03-31T16:12:29;14.50;95.30
11569;DHT22;5840;46.894;15.542;2023-03-31T16:15:00;14.50;95.80
11569;DHT22;5840;46.894;15.542;2023-03-31T16:17:31;14.40;95.60
11569;DHT22;5840;46.894;15.542;2023-03-31T16:20:02;14.30;95.10
11569;DHT22;5840;46.894;15.542;2023-03-31T16:22:36;14.20;95.30
11569;DHT22;5840;46.894;15.542;2023-03-31T16:25:09;14.10;95.50